createdAt,value
2023-01-18T00:00:18.294Z,98665.09
2023-01-18T00:02:46.916Z,98662.66
2023-01-18T00:05:15.001Z,98662.03
2023-01-18T00:07:42.636Z,98668.94
2023-01-18T00:10:11.214Z,98671.72
2023-01-18T00:12:38.764Z,98672.38
2023-01-18T00:15:09.434Z,98672.16
2023-01-18T00:17:47.413Z,98679.00
2023-01-18T00:20:15.473Z,98684.88
2023-01-18T00:22:43.104Z,98691.31
2023-01-18T00:25:11.784Z,98688.50
2023-01-18T00:27:39.633Z,98683.88
2023-01-18T00:30:12.607Z,98693.38
2023-01-18T00:32:40.243Z,98693.78
2023-01-18T00:35:08.259Z,98690.38
2023-01-18T00:37:36.626Z,98700.69
2023-01-18T00:40:06.758Z,98702.31
2023-01-18T00:42:51.997Z,98704.75
2023-01-18T00:45:20.969Z,98705.00
2023-01-18T00:47:48.502Z,98700.81
2023-01-18T00:50:16.353Z,98706.25
2023-01-18T00:52:46.257Z,98705.44
2023-01-18T00:55:15.391Z,98709.69
2023-01-18T00:57:43.876Z,98712.69
2023-01-18T01:00:15.236Z,98713.31
2023-01-18T01:02:44.282Z,98715.75
2023-01-18T01:05:35.708Z,98712.31
2023-01-18T01:08:03.775Z,98717.41
2023-01-18T01:10:31.379Z,98720.03
2023-01-18T01:13:16.667Z,98717.41
2023-01-18T01:16:02.086Z,98728.47
2023-01-18T01:18:48.658Z,98744.22
2023-01-18T01:21:34.245Z,98740.16
2023-01-18T01:24:19.385Z,98750.66
2023-01-18T01:26:47.099Z,98764.78
2023-01-18T01:29:15.920Z,98774.75
2023-01-18T01:31:43.731Z,98780.25
2023-01-18T01:34:12.682Z,98777.06
2023-01-18T01:36:40.336Z,98785.19
2023-01-18T01:39:10.872Z,98783.84
2023-01-18T01:41:38.908Z,98777.56
2023-01-18T01:44:43.033Z,98776.34
2023-01-18T01:47:15.294Z,98771.75
2023-01-18T01:49:48.072Z,98780.25
2023-01-18T01:52:17.988Z,98780.25
2023-01-18T01:54:50.138Z,98778.81
2023-01-18T01:57:22.164Z,98777.63
2023-01-18T01:59:53.516Z,98775.97
2023-01-18T02:02:21.950Z,98783.88
2023-01-18T02:04:54.195Z,98787.94
2023-01-18T02:07:22.790Z,98784.31
2023-01-18T02:09:52.435Z,98793.63
2023-01-18T02:12:20.579Z,98789.19
2023-01-18T02:14:48.414Z,98800.91
2023-01-18T02:17:30.809Z,98816.47
2023-01-18T02:20:27.163Z,98805.16
2023-01-18T02:23:20.852Z,98828.19
2023-01-18T02:26:18.879Z,98838.44
2023-01-18T02:28:57.112Z,98839.63
2023-01-18T02:31:29.751Z,98834.13
2023-01-18T02:34:04.828Z,98832.88
2023-01-18T02:36:40.538Z,98840.94
2023-01-18T02:39:23.443Z,98838.31
2023-01-18T02:42:14.567Z,98838.13
2023-01-18T02:45:04.478Z,98849.84
2023-01-18T02:47:34.037Z,98855.63
2023-01-18T02:50:01.687Z,98863.06
2023-01-18T02:52:41.348Z,98864.63
2023-01-18T02:55:15.149Z,98862.19
2023-01-18T02:57:42.812Z,98870.25
2023-01-18T03:00:17.567Z,98861.13
2023-01-18T03:02:48.887Z,98870.56
2023-01-18T03:05:17.669Z,98865.66
2023-01-18T03:07:51.700Z,98870.97
2023-01-18T03:10:19.465Z,98866.53
2023-01-18T03:12:57.758Z,98861.28
2023-01-18T03:15:34.435Z,98863.53
2023-01-18T03:18:11.379Z,98861.53
2023-01-18T03:20:43.871Z,98859.38
2023-01-18T03:23:35.396Z,98863.63
2023-01-18T03:26:05.499Z,98870.69
2023-01-18T03:28:54.153Z,98871.50
2023-01-18T03:31:47.572Z,98866.88
2023-01-18T03:34:22.441Z,98874.59
2023-01-18T03:36:53.446Z,98871.16
2023-01-18T03:39:28.355Z,98865.53
2023-01-18T03:42:00.640Z,98866.88
2023-01-18T03:44:35.073Z,98869.69
2023-01-18T03:47:05.945Z,98872.94
2023-01-18T03:49:35.902Z,98868.97
2023-01-18T03:52:15.394Z,98884.97
2023-01-18T03:54:51.929Z,98867.22
2023-01-18T03:57:26.485Z,98871.03
2023-01-18T03:59:54.217Z,98861.91
2023-01-18T04:02:25.144Z,98861.25
2023-01-18T04:04:57.389Z,98865.28
2023-01-18T04:07:26.539Z,98867.44
2023-01-18T04:09:54.182Z,98868.63
2023-01-18T04:12:21.824Z,98870.81
2023-01-18T04:14:49.381Z,98874.78
2023-01-18T04:17:17.169Z,98886.69
2023-01-18T04:19:46.188Z,98880.59
2023-01-18T04:22:13.906Z,98884.22
2023-01-18T04:24:41.555Z,98880.97
2023-01-18T04:27:09.580Z,98888.03
2023-01-18T04:29:37.170Z,98881.50
2023-01-18T04:32:05.686Z,98885.50
2023-01-18T04:34:33.359Z,98888.50
2023-01-18T04:37:02.377Z,98890.47
2023-01-18T04:39:30.203Z,98898.19
2023-01-18T04:41:57.815Z,98911.13
2023-01-18T04:44:25.510Z,98912.41
2023-01-18T04:46:53.230Z,98916.47
2023-01-18T04:49:20.861Z,98923.81
2023-01-18T04:51:48.532Z,98921.00
2023-01-18T04:54:19.108Z,98927.69
2023-01-18T04:56:46.801Z,98924.69
2023-01-18T04:59:16.481Z,98926.34
2023-01-18T05:01:44.341Z,98921.91
2023-01-18T05:04:11.952Z,98929.13
2023-01-18T05:06:39.511Z,98932.47
2023-01-18T05:09:07.770Z,98939.38
2023-01-18T05:11:36.770Z,98941.03
2023-01-18T05:14:04.386Z,98944.28
2023-01-18T05:16:32.049Z,98952.78
2023-01-18T05:18:59.677Z,98952.34
2023-01-18T05:21:28.583Z,98961.84
2023-01-18T05:23:56.161Z,98959.56
2023-01-18T05:26:25.059Z,98971.88
2023-01-18T05:28:57.929Z,98974.50
2023-01-18T05:31:26.396Z,98976.34
2023-01-18T05:33:54.170Z,98986.50
2023-01-18T05:36:21.769Z,98985.00
2023-01-18T05:38:49.589Z,98986.50
2023-01-18T05:41:17.159Z,98987.47
2023-01-18T05:43:44.715Z,98985.84
2023-01-18T05:46:13.798Z,98990.47
2023-01-18T05:48:41.476Z,98986.19
2023-01-18T05:51:11.147Z,98990.81
2023-01-18T05:53:39.754Z,98996.69
2023-01-18T05:56:08.999Z,98998.69
2023-01-18T05:58:37.256Z,99001.84
2023-01-18T06:01:04.964Z,99005.28
2023-01-18T06:03:33.997Z,98997.41
2023-01-18T06:06:01.824Z,98999.41
2023-01-18T06:08:29.594Z,99003.03
2023-01-18T06:10:58.911Z,99014.34
2023-01-18T06:13:28.344Z,99013.53
2023-01-18T06:15:56.741Z,99010.63
2023-01-18T06:18:25.971Z,99021.13
2023-01-18T06:20:55.679Z,99024.75
2023-01-18T06:23:23.295Z,99025.31
2023-01-18T06:25:51.084Z,99028.09
2023-01-18T06:28:19.668Z,99036.50
2023-01-18T06:30:48.286Z,99041.13
2023-01-18T06:33:16.093Z,99036.59
2023-01-18T06:35:44.195Z,99044.22
2023-01-18T06:38:14.003Z,99044.47
2023-01-18T06:40:41.713Z,99047.16
2023-01-18T06:43:10.271Z,99048.69
2023-01-18T06:45:37.888Z,99054.63
2023-01-18T06:48:05.676Z,99056.94
2023-01-18T06:50:33.868Z,99049.94
2023-01-18T06:53:01.585Z,99056.69
2023-01-18T06:55:30.878Z,99063.44
2023-01-18T06:57:58.538Z,99060.69
2023-01-18T07:00:26.411Z,99064.16
2023-01-18T07:02:54.003Z,99075.50
2023-01-18T07:05:22.098Z,99084.22
2023-01-18T07:07:49.706Z,99081.94
2023-01-18T07:10:17.864Z,99082.28
2023-01-18T07:12:48.738Z,99085.25
2023-01-18T07:15:22.010Z,99090.03
2023-01-18T07:17:51.191Z,99099.19
2023-01-18T07:20:19.857Z,99096.75
2023-01-18T07:22:51.692Z,99099.72
2023-01-18T07:25:20.623Z,99094.97
2023-01-18T07:27:49.837Z,99100.38
2023-01-18T07:30:18.598Z,99109.38
2023-01-18T07:32:49.688Z,99112.50
2023-01-18T07:35:18.354Z,99123.97
2023-01-18T07:37:49.765Z,99134.63
2023-01-18T07:40:18.172Z,99141.81
2023-01-18T07:42:45.901Z,99144.59
2023-01-18T07:45:15.331Z,99150.81
2023-01-18T07:47:43.190Z,99152.63
2023-01-18T07:50:12.289Z,99151.81
2023-01-18T07:52:39.827Z,99159.69
2023-01-18T07:55:07.993Z,99164.25
2023-01-18T07:57:35.670Z,99166.22
2023-01-18T08:00:03.472Z,99171.47
2023-01-18T08:02:32.425Z,99174.06
2023-01-18T08:05:00.107Z,99180.13
2023-01-18T08:07:29.040Z,99182.56
2023-01-18T08:09:57.989Z,99186.84
2023-01-18T08:12:25.679Z,99199.59
2023-01-18T08:14:53.256Z,99196.81
2023-01-18T08:17:20.859Z,99209.91
2023-01-18T08:19:49.793Z,99209.75
2023-01-18T08:22:17.445Z,99203.53
2023-01-18T08:24:45.066Z,99209.44
2023-01-18T08:27:12.668Z,99205.66
2023-01-18T08:29:40.227Z,99206.63
2023-01-18T08:32:07.767Z,99211.06
2023-01-18T08:34:35.373Z,99206.97
2023-01-18T08:37:04.422Z,99214.81
2023-01-18T08:39:32.266Z,99213.03
2023-01-18T08:41:59.844Z,99223.34
2023-01-18T08:44:28.600Z,99225.63
2023-01-18T08:46:56.251Z,99228.06
2023-01-18T08:49:23.833Z,99233.16
2023-01-18T08:51:51.663Z,99230.69
2023-01-18T08:54:20.751Z,99235.59
2023-01-18T08:56:48.310Z,99225.94
2023-01-18T08:59:15.967Z,99230.88
2023-01-18T09:01:43.625Z,99236.09
2023-01-18T09:04:11.355Z,99239.84
2023-01-18T09:06:39.277Z,99244.28
2023-01-18T09:09:07.306Z,99253.63
2023-01-18T09:11:36.215Z,99254.75
2023-01-18T09:14:03.953Z,99255.88
2023-01-18T09:16:32.533Z,99258.66
2023-01-18T09:19:00.298Z,99265.88
2023-01-18T09:21:29.083Z,99273.72
2023-01-18T09:23:57.005Z,99277.13
2023-01-18T09:26:24.600Z,99262.06
2023-01-18T09:28:55.384Z,99280.22
2023-01-18T09:31:26.626Z,99271.22
2023-01-18T09:33:57.348Z,99275.31
2023-01-18T09:36:28.689Z,99275.78
2023-01-18T09:38:57.014Z,99278.88
2023-01-18T09:41:32.074Z,99272.13
2023-01-18T09:44:03.905Z,99278.50
2023-01-18T09:46:36.418Z,99282.72
2023-01-18T09:49:06.955Z,99284.81
2023-01-18T09:51:43.975Z,99282.81
2023-01-18T09:54:23.861Z,99291.16
2023-01-18T09:56:59.529Z,99290.28
2023-01-18T09:59:34.953Z,99296.66
2023-01-18T10:02:04.436Z,99293.69
2023-01-18T10:04:36.890Z,99298.59
2023-01-18T10:07:08.148Z,99295.13
2023-01-18T10:09:42.064Z,99295.59
2023-01-18T10:12:21.586Z,99300.97
2023-01-18T10:14:58.361Z,99302.59
2023-01-18T10:17:33.182Z,99301.56
2023-01-18T10:20:01.413Z,99303.72
2023-01-18T10:22:32.748Z,99299.28
2023-01-18T10:25:04.792Z,99305.66
2023-01-18T10:28:08.246Z,99307.56
2023-01-18T10:30:50.423Z,99309.50
2023-01-18T10:33:21.423Z,99314.34
2023-01-18T10:35:51.953Z,99312.59
2023-01-18T10:38:23.223Z,99327.69
2023-01-18T10:40:56.016Z,99318.63
2023-01-18T10:43:25.548Z,99320.50
2023-01-18T10:45:54.970Z,99314.06
2023-01-18T10:48:28.016Z,99315.78
2023-01-18T10:50:57.387Z,99320.69
2023-01-18T10:53:31.915Z,99321.25
2023-01-18T10:56:03.996Z,99317.75
2023-01-18T10:58:38.514Z,99316.34
2023-01-18T11:01:15.207Z,99317.94
2023-01-18T11:03:47.537Z,99317.28
2023-01-18T11:06:16.996Z,99306.72
2023-01-18T11:08:45.010Z,99304.53
2023-01-18T11:11:19.773Z,99304.75
2023-01-18T11:13:48.957Z,99302.84
2023-01-18T11:16:20.729Z,99303.09
2023-01-18T11:19:02.726Z,99297.84
2023-01-18T11:21:44.347Z,99299.31
2023-01-18T11:24:16.628Z,99299.75
2023-01-18T11:26:57.304Z,99300.88
2023-01-18T11:29:28.803Z,99303.75
2023-01-18T11:32:03.632Z,99306.41
2023-01-18T11:34:33.500Z,99304.22
2023-01-18T11:37:02.347Z,99314.19
2023-01-18T11:39:33.664Z,99305.31
2023-01-18T11:42:21.569Z,99311.03
2023-01-18T11:45:08.185Z,99309.28
2023-01-18T11:47:50.532Z,99309.09
2023-01-18T11:50:28.916Z,99298.94
2023-01-18T11:53:03.332Z,99317.63
2023-01-18T11:55:36.039Z,99312.47
2023-01-18T11:58:05.262Z,99311.09
2023-01-18T12:00:46.179Z,99312.63
2023-01-18T12:03:43.444Z,99314.44
2023-01-18T12:06:22.916Z,99305.88
2023-01-18T12:09:03.573Z,99302.09
2023-01-18T12:11:47.913Z,99311.69
2023-01-18T12:14:30.756Z,99311.31
2023-01-18T12:17:15.521Z,99318.03
2023-01-18T12:19:58.634Z,99310.38
2023-01-18T12:23:04.421Z,99319.41
2023-01-18T12:25:47.812Z,99311.22
2023-01-18T12:28:26.863Z,99304.56
2023-01-18T12:31:08.983Z,99305.78
2023-01-18T12:33:49.554Z,99294.91
2023-01-18T12:36:29.849Z,99310.34
2023-01-18T12:38:58.158Z,99305.44
2023-01-18T12:41:44.139Z,99311.13
2023-01-18T12:44:43.129Z,99304.25
2023-01-18T12:47:34.792Z,99296.34
2023-01-18T12:50:07.928Z,99304.25
2023-01-18T12:52:45.502Z,99295.25
2023-01-18T12:55:21.026Z,99288.44
2023-01-18T12:57:51.670Z,99294.06
2023-01-18T13:00:23.459Z,99299.97
2023-01-18T13:02:56.938Z,99311.31
2023-01-18T13:05:35.048Z,99314.78
2023-01-18T13:08:09.817Z,99317.88
2023-01-18T13:10:38.686Z,99318.59
2023-01-18T13:13:07.408Z,99313.97
2023-01-18T13:15:44.607Z,99317.22
2023-01-18T13:18:17.841Z,99317.22
2023-01-18T13:20:58.971Z,99321.66
2023-01-18T13:23:37.938Z,99319.22
2023-01-18T13:26:20.356Z,99323.69
2023-01-18T13:28:48.178Z,99323.59
2023-01-18T13:31:16.331Z,99332.97
2023-01-18T13:33:45.835Z,99332.06
2023-01-18T13:36:17.228Z,99332.06
2023-01-18T13:38:52.044Z,99329.44
2023-01-18T13:41:24.729Z,99324.69
2023-01-18T13:44:02.612Z,99330.31
2023-01-18T13:46:32.876Z,99328.88
2023-01-18T13:49:02.622Z,99329.25
2023-01-18T13:51:55.396Z,99338.34
2023-01-18T13:55:05.207Z,99345.06
2023-01-18T13:57:35.316Z,99353.16
2023-01-18T14:00:04.805Z,99348.25
2023-01-18T14:02:41.812Z,99350.78
2023-01-18T14:05:20.020Z,99350.16
2023-01-18T14:07:51.349Z,99353.94
2023-01-18T14:10:30.286Z,99342.31
2023-01-18T14:12:59.278Z,99356.88
2023-01-18T14:15:46.758Z,99355.56
2023-01-18T14:18:25.826Z,99359.75
2023-01-18T14:21:06.119Z,99368.16
2023-01-18T14:24:06.991Z,99367.88
2023-01-18T14:26:38.529Z,99374.69
2023-01-18T14:29:11.030Z,99375.19
2023-01-18T14:31:41.812Z,99374.09
2023-01-18T14:34:26.473Z,99379.25
2023-01-18T14:36:55.038Z,99370.09
2023-01-18T14:39:23.356Z,99376.88
2023-01-18T14:41:56.129Z,99380.03
2023-01-18T14:44:25.905Z,99381.75
2023-01-18T14:46:55.414Z,99384.53
2023-01-18T14:49:27.287Z,99391.94
2023-01-18T14:51:57.011Z,99393.31
2023-01-18T14:54:25.896Z,99391.19
2023-01-18T14:57:01.317Z,99387.44
2023-01-18T14:59:31.007Z,99397.66
2023-01-18T15:02:01.017Z,99389.81
2023-01-18T15:04:29.995Z,99395.75
2023-01-18T15:07:01.913Z,99393.38
2023-01-18T15:09:32.963Z,99387.16
2023-01-18T15:12:06.848Z,99388.66
2023-01-18T15:14:37.730Z,99396.75
2023-01-18T15:17:09.555Z,99396.59
2023-01-18T15:19:41.523Z,99396.44
2023-01-18T15:22:13.334Z,99394.50
2023-01-18T15:24:43.887Z,99393.56
2023-01-18T15:27:15.487Z,99399.47
2023-01-18T15:29:48.058Z,99406.22
2023-01-18T15:32:17.598Z,99401.66
2023-01-18T15:34:47.565Z,99408.53
2023-01-18T15:37:19.935Z,99405.44
2023-01-18T15:39:51.190Z,99410.38
2023-01-18T15:42:20.648Z,99412.69
2023-01-18T15:44:49.870Z,99403.66
2023-01-18T15:47:24.725Z,99404.34
2023-01-18T15:49:54.782Z,99408.41
2023-01-18T15:52:44.921Z,99410.91
2023-01-18T15:55:23.104Z,99414.81
2023-01-18T15:57:59.301Z,99415.47
2023-01-18T16:00:31.362Z,99408.13
2023-01-18T16:02:59.500Z,99416.13
2023-01-18T16:05:27.802Z,99426.94
2023-01-18T16:08:16.498Z,99424.66
2023-01-18T16:10:52.612Z,99421.53
2023-01-18T16:13:35.904Z,99411.38
2023-01-18T16:16:18.289Z,99417.13
2023-01-18T16:18:49.421Z,99420.88
2023-01-18T16:21:25.952Z,99424.63
2023-01-18T16:23:55.055Z,99435.28
2023-01-18T16:26:29.170Z,99436.44
2023-01-18T16:29:09.116Z,99432.47
2023-01-18T16:31:41.371Z,99444.75
2023-01-18T16:34:20.093Z,99437.91
2023-01-18T16:36:48.033Z,99425.13
2023-01-18T16:39:15.673Z,99444.59
2023-01-18T16:41:48.572Z,99437.72
2023-01-18T16:44:17.928Z,99443.09
2023-01-18T16:46:45.709Z,99438.88
2023-01-18T16:49:13.761Z,99451.28
2023-01-18T16:51:41.540Z,99442.63
2023-01-18T16:54:09.395Z,99448.84
2023-01-18T16:56:37.001Z,99442.78
2023-01-18T16:59:15.335Z,99451.47
2023-01-18T17:01:44.510Z,99448.84
2023-01-18T17:04:12.688Z,99454.22
2023-01-18T17:06:41.308Z,99449.31
2023-01-18T17:09:20.085Z,99451.78
2023-01-18T17:11:47.811Z,99450.44
2023-01-18T17:14:15.470Z,99439.97
2023-01-18T17:16:45.173Z,99441.94
2023-01-18T17:19:14.502Z,99445.53
2023-01-18T17:21:43.175Z,99449.94
2023-01-18T17:24:11.962Z,99454.38
2023-01-18T17:26:41.529Z,99452.72
2023-01-18T17:29:10.327Z,99450.44
2023-01-18T17:31:51.382Z,99452.22
2023-01-18T17:34:27.373Z,99459.44
2023-01-18T17:36:56.831Z,99451.72
2023-01-18T17:39:31.922Z,99461.38
2023-01-18T17:42:12.231Z,99464.16
2023-01-18T17:44:42.177Z,99463.50
2023-01-18T17:47:09.844Z,99470.53
2023-01-18T17:49:38.747Z,99464.47
2023-01-18T17:52:06.515Z,99461.19
2023-01-18T17:54:34.847Z,99465.63
2023-01-18T17:57:02.566Z,99458.72
2023-01-18T17:59:30.146Z,99453.66
2023-01-18T18:01:57.849Z,99452.00
2023-01-18T18:04:25.479Z,99452.19
2023-01-18T18:06:58.259Z,99460.03
2023-01-18T18:09:25.889Z,99457.41
2023-01-18T18:11:53.810Z,99464.59
2023-01-18T18:14:21.404Z,99461.16
2023-01-18T18:16:49.054Z,99470.66
2023-01-18T18:19:17.884Z,99474.25
2023-01-18T18:21:46.114Z,99470.97
2023-01-18T18:24:15.086Z,99470.16
2023-01-18T18:26:42.937Z,99476.38
2023-01-18T18:29:10.471Z,99468.53
2023-01-18T18:31:39.276Z,99465.06
2023-01-18T18:34:07.897Z,99471.28
2023-01-18T18:36:35.825Z,99467.00
2023-01-18T18:39:04.642Z,99470.47
2023-01-18T18:41:33.991Z,99461.94
2023-01-18T18:44:01.975Z,99461.94
2023-01-18T18:46:29.774Z,99473.25
2023-01-18T18:48:57.509Z,99470.94
2023-01-18T18:51:25.493Z,99473.38
2023-01-18T18:53:53.348Z,99477.66
2023-01-18T18:56:21.031Z,99480.41
2023-01-18T18:58:49.978Z,99473.56
2023-01-18T19:01:22.672Z,99481.56
2023-01-18T19:03:51.710Z,99472.88
2023-01-18T19:06:21.009Z,99478.13
2023-01-18T19:08:48.850Z,99476.31
2023-01-18T19:11:16.757Z,99476.50
2023-01-18T19:13:44.602Z,99479.75
2023-01-18T19:16:13.992Z,99473.69
2023-01-18T19:18:42.001Z,99473.69
2023-01-18T19:21:09.605Z,99472.72
2023-01-18T19:23:37.206Z,99480.41
2023-01-18T19:26:04.818Z,99469.94
2023-01-18T19:28:32.411Z,99472.44
2023-01-18T19:31:04.674Z,99468.16
2023-01-18T19:33:33.888Z,99468.00
2023-01-18T19:36:07.723Z,99471.47
2023-01-18T19:38:38.744Z,99468.84
2023-01-18T19:41:11.618Z,99470.47
2023-01-18T19:43:39.686Z,99466.03
2023-01-18T19:46:08.334Z,99468.66
2023-01-18T19:48:39.334Z,99460.81
2023-01-18T19:51:20.759Z,99466.03
2023-01-18T19:53:49.622Z,99466.88
2023-01-18T19:56:17.349Z,99463.28
2023-01-18T19:58:45.587Z,99467.69
2023-01-18T20:01:26.587Z,99457.22
2023-01-18T20:04:04.264Z,99457.22
2023-01-18T20:06:31.849Z,99454.75
2023-01-18T20:08:59.565Z,99448.53
2023-01-18T20:11:27.316Z,99455.25
2023-01-18T20:13:55.839Z,99461.31
2023-01-18T20:16:24.512Z,99447.25
2023-01-18T20:18:52.838Z,99455.78
2023-01-18T20:21:21.824Z,99445.28
2023-01-18T20:23:49.491Z,99447.75
2023-01-18T20:26:27.685Z,99444.81
2023-01-18T20:29:02.833Z,99439.09
2023-01-18T20:31:30.475Z,99435.16
2023-01-18T20:33:58.028Z,99445.00
2023-01-18T20:36:27.838Z,99441.09
2023-01-18T20:38:55.387Z,99447.81
2023-01-18T20:41:22.934Z,99448.66
2023-01-18T20:43:50.532Z,99441.63
2023-01-18T20:46:18.195Z,99448.66
2023-01-18T20:48:45.786Z,99433.56
2023-01-18T20:51:13.574Z,99436.06
2023-01-18T20:53:42.495Z,99441.28
2023-01-18T20:56:27.836Z,99441.81
2023-01-18T20:58:56.934Z,99449.16
2023-01-18T21:01:31.353Z,99443.47
2023-01-18T21:03:59.837Z,99442.13
2023-01-18T21:06:27.536Z,99441.00
2023-01-18T21:08:57.907Z,99436.44
2023-01-18T21:11:26.782Z,99428.25
2023-01-18T21:13:56.367Z,99428.06
2023-01-18T21:16:24.606Z,99424.63
2023-01-18T21:18:53.926Z,99423.81
2023-01-18T21:21:21.663Z,99422.19
2023-01-18T21:23:49.313Z,99414.13
2023-01-18T21:26:18.284Z,99422.69
2023-01-18T21:28:46.491Z,99416.09
2023-01-18T21:31:14.068Z,99432.66
2023-01-18T21:33:42.469Z,99424.47
2023-01-18T21:36:13.793Z,99423.66
2023-01-18T21:38:41.862Z,99426.28
2023-01-18T21:41:27.357Z,99419.72
2023-01-18T21:44:13.757Z,99429.06
2023-01-18T21:46:45.556Z,99425.47
2023-01-18T21:49:49.434Z,99429.41
2023-01-18T21:52:38.797Z,99430.06
2023-01-18T21:55:06.941Z,99428.91
2023-01-18T21:57:34.967Z,99414.97
2023-01-18T22:00:05.696Z,99422.84
2023-01-18T22:02:33.651Z,99428.91
2023-01-18T22:05:03.235Z,99428.09
2023-01-18T22:07:32.623Z,99426.13
2023-01-18T22:10:05.952Z,99422.53
2023-01-18T22:12:35.497Z,99418.94
2023-01-18T22:15:05.534Z,99420.22
2023-01-18T22:17:33.121Z,99410.72
2023-01-18T22:20:01.730Z,99405.31
2023-01-18T22:22:29.460Z,99414.00
2023-01-18T22:24:59.953Z,99412.03
2023-01-18T22:27:27.822Z,99408.28
2023-01-18T22:29:55.404Z,99419.56
2023-01-18T22:32:24.791Z,99420.25
2023-01-18T22:34:52.515Z,99402.38
2023-01-18T22:37:20.131Z,99406.47
2023-01-18T22:39:47.686Z,99406.97
2023-01-18T22:42:15.247Z,99403.31
2023-01-18T22:44:42.872Z,99391.84
2023-01-18T22:47:10.455Z,99399.56
2023-01-18T22:49:39.389Z,99400.72
2023-01-18T22:52:06.976Z,99402.34
2023-01-18T22:54:34.638Z,99403.16
2023-01-18T22:57:02.259Z,99407.25
2023-01-18T22:59:29.886Z,99409.53
2023-01-18T23:01:58.138Z,99412.66
2023-01-18T23:04:25.944Z,99406.25
2023-01-18T23:06:57.830Z,99404.28
2023-01-18T23:09:26.592Z,99392.78
2023-01-18T23:11:54.159Z,99394.13
2023-01-18T23:14:39.306Z,99395.72
2023-01-18T23:17:24.241Z,99386.88
2023-01-18T23:19:51.798Z,99384.09
2023-01-18T23:22:20.711Z,99383.09
2023-01-18T23:24:48.363Z,99381.94
2023-01-18T23:27:15.968Z,99379.31
2023-01-18T23:29:43.663Z,99353.72
2023-01-18T23:32:11.288Z,99372.09
2023-01-18T23:34:39.031Z,99375.22
2023-01-18T23:37:06.608Z,99376.84
2023-01-18T23:39:53.017Z,99371.44
2023-01-18T23:42:38.337Z,99379.13
2023-01-18T23:45:24.747Z,99364.03
2023-01-18T23:48:09.970Z,99368.63
2023-01-18T23:50:55.304Z,99369.63
2023-01-18T23:53:40.306Z,99370.41
2023-01-18T23:56:09.463Z,99372.06
2023-01-18T23:58:39.182Z,99380.78
